Time;durP1;ratioP1;P1;durP2;ratioP2;P2;SDS_P1;SDS_P2;PMS_P1;PMS_P2;Temp;Humidity;BMP_temperature;BMP_pressure;BME280_temperature;BME280_humidity;BME280_pressure;Samples;Min_cycle;Max_cycle;Signal;HPM_P1;HPM_P2
2022/12/19 00:02:22;;;;;;;44.30;27.23;;;;;;;0.46;100.00;97673.28;5007059;28;20208;-60
2022/12/19 00:04:49;;;;;;;45.33;28.33;;;;;;;0.44;100.00;97659.50;5009443;28;20239;-60
2022/12/19 00:07:15;;;;;;;46.67;28.90;;;;;;;0.46;100.00;97657.66;5010966;28;20204;-60
2022/12/19 00:09:46;;;;;;;44.27;28.63;;;;;;;0.40;100.00;97663.09;5008259;28;20215;-60
2022/12/19 00:12:13;;;;;;;48.50;28.33;;;;;;;0.40;100.00;97657.06;4997328;28;20294;-59
2022/12/19 00:14:41;;;;;;;44.87;28.37;;;;;;;0.43;100.00;97670.78;4998456;28;20219;-60
2022/12/19 00:17:08;;;;;;;44.37;28.10;;;;;;;0.46;100.00;97670.69;5003576;28;20265;-60
2022/12/19 00:19:35;;;;;;;49.17;30.33;;;;;;;0.45;100.00;97665.53;5006208;28;20199;-59
2022/12/19 00:22:02;;;;;;;45.63;29.13;;;;;;;0.45;100.00;97666.41;5012651;28;20206;-59
2022/12/19 00:24:28;;;;;;;44.60;28.33;;;;;;;0.48;100.00;97670.63;5012207;28;20230;-60
2022/12/19 00:26:55;;;;;;;42.73;27.63;;;;;;;0.53;100.00;97665.28;5011953;28;20219;-59
2022/12/19 00:29:21;;;;;;;48.73;29.50;;;;;;;0.49;100.00;97673.19;4996843;28;20211;-60
2022/12/19 00:31:49;;;;;;;47.87;29.10;;;;;;;0.48;100.00;97673.22;4993154;28;20242;-59
2022/12/19 00:34:16;;;;;;;48.87;28.40;;;;;;;0.51;100.00;97673.13;4994569;28;20208;-59
2022/12/19 00:36:44;;;;;;;41.03;27.37;;;;;;;0.54;100.00;97673.00;4994503;28;20555;-59
2022/12/19 00:39:10;;;;;;;41.47;28.20;;;;;;;0.60;100.00;97670.19;4995229;28;20226;-60
2022/12/19 00:41:38;;;;;;;46.10;29.83;;;;;;;0.61;100.00;97673.63;4994533;28;20212;-59
2022/12/19 00:44:06;;;;;;;43.13;28.20;;;;;;;0.55;100.00;97669.50;4999242;28;20258;-59
2022/12/19 00:46:34;;;;;;;49.77;30.03;;;;;;;0.58;100.00;97671.13;5004781;28;20213;-60
2022/12/19 00:49:03;;;;;;;45.23;29.13;;;;;;;0.61;100.00;97674.47;5003843;28;20231;-59
2022/12/19 00:51:33;;;;;;;46.03;28.47;;;;;;;0.59;100.00;97667.63;5021197;28;20252;-59
2022/12/19 00:54:01;;;;;;;45.73;27.67;;;;;;;0.60;100.00;97643.31;5025069;28;20176;-60
2022/12/19 00:56:30;;;;;;;47.77;28.93;;;;;;;0.64;100.00;97656.13;5024455;28;20176;-60
2022/12/19 00:58:57;;;;;;;44.40;27.40;;;;;;;0.64;100.00;97643.13;5028490;28;20183;-60
2022/12/19 01:01:25;;;;;;;43.83;28.07;;;;;;;0.66;100.00;97659.53;5003690;28;20204;-59
2022/12/19 01:03:52;;;;;;;42.47;27.67;;;;;;;0.65;100.00;97657.84;5001686;28;20727;-59
2022/12/19 01:06:18;;;;;;;44.27;27.33;;;;;;;0.65;100.00;97652.63;5002619;28;20222;-59
2022/12/19 01:08:45;;;;;;;46.57;27.93;;;;;;;0.62;100.00;97650.16;5006521;28;20211;-59
2022/12/19 01:11:13;;;;;;;45.77;28.30;;;;;;;0.67;100.00;97655.19;5005773;28;20556;-60
2022/12/19 01:13:39;;;;;;;45.10;28.73;;;;;;;0.63;100.00;97657.06;5005960;28;20220;-60
2022/12/19 01:16:08;;;;;;;45.80;29.03;;;;;;;0.71;100.00;97648.97;5005479;28;20208;-59
2022/12/19 01:18:35;;;;;;;43.03;27.47;;;;;;;0.75;100.00;97647.91;5005761;28;20671;-59
2022/12/19 01:21:07;;;;;;;45.70;28.93;;;;;;;0.74;100.00;97641.88;5005405;28;20207;-59
2022/12/19 01:23:33;;;;;;;45.17;28.53;;;;;;;0.76;100.00;97653.06;5006148;28;20203;-60
2022/12/19 01:26:00;;;;;;;44.20;28.60;;;;;;;0.76;100.00;97647.88;5005340;28;20651;-59
2022/12/19 01:28:28;;;;;;;43.97;26.57;;;;;;;0.81;100.00;97648.56;5008344;28;20213;-59
2022/12/19 01:30:54;;;;;;;41.83;26.60;;;;;;;0.80;100.00;97646.84;5007813;28;20208;-61
2022/12/19 01:33:22;;;;;;;41.03;26.03;;;;;;;0.87;100.00;97653.50;5007750;28;20203;-60
2022/12/19 01:35:49;;;;;;;43.80;27.57;;;;;;;0.95;100.00;97651.47;5013477;28;20210;-59
2022/12/19 01:38:17;;;;;;;45.80;28.37;;;;;;;0.93;100.00;97655.88;5010857;28;20204;-61
2022/12/19 01:40:49;;;;;;;40.47;27.03;;;;;;;0.76;100.00;97649.63;5011790;28;20222;-60
2022/12/19 01:43:16;;;;;;;46.50;26.87;;;;;;;0.76;100.00;97650.47;5007392;28;20236;-60
2022/12/19 01:45:45;;;;;;;40.37;26.07;;;;;;;0.73;100.00;97637.56;4996545;28;20241;-59
2022/12/19 01:48:16;;;;;;;43.50;27.07;;;;;;;0.79;100.00;97639.09;4997498;28;20235;-61
2022/12/19 01:50:50;;;;;;;40.73;26.30;;;;;;;0.83;100.00;97641.50;4996749;28;20525;-60
2022/12/19 01:53:17;;;;;;;41.63;26.27;;;;;;;0.83;100.00;97651.94;4996527;28;20210;-62
2022/12/19 01:55:44;;;;;;;40.57;26.53;;;;;;;0.78;100.00;97640.84;4995910;28;20214;-60
2022/12/19 01:58:11;;;;;;;38.57;25.17;;;;;;;0.86;100.00;97649.19;4995396;28;20218;-60
2022/12/19 02:00:38;;;;;;;41.80;26.83;;;;;;;0.86;100.00;97646.59;4994860;28;20567;-60
2022/12/19 02:03:09;;;;;;;44.20;27.47;;;;;;;0.87;100.00;97637.03;4995002;28;20219;-59
2022/12/19 02:05:36;;;;;;;41.27;26.37;;;;;;;0.88;100.00;97644.81;4994711;28;20219;-59
2022/12/19 02:08:03;;;;;;;41.53;26.10;;;;;;;0.95;100.00;97651.47;4994804;28;20215;-59
2022/12/19 02:10:30;;;;;;;41.63;26.33;;;;;;;0.87;100.00;97656.13;4994333;28;20223;-58
2022/12/19 02:12:57;;;;;;;39.90;27.10;;;;;;;0.84;100.00;97643.22;4994933;28;20215;-59
2022/12/19 02:15:26;;;;;;;42.87;27.23;;;;;;;0.88;100.00;97650.00;4994536;28;20637;-59
2022/12/19 02:18:03;;;;;;;45.20;27.60;;;;;;;0.86;100.00;97644.00;4994414;28;20215;-59
2022/12/19 02:20:51;;;;;;;43.00;26.70;;;;;;;0.93;100.00;97642.84;4994858;28;20652;-59
2022/12/19 02:23:45;;;;;;;43.93;28.33;;;;;;;0.85;100.00;97628.44;5009830;28;20206;-59
2022/12/19 02:26:27;;;;;;;43.00;27.47;;;;;;;0.88;100.00;97636.13;5006797;28;20188;-59
2022/12/19 02:29:08;;;;;;;43.10;29.10;;;;;;;0.89;100.00;97638.66;5013845;28;20199;-59
2022/12/19 02:31:38;;;;;;;43.60;26.43;;;;;;;0.90;100.00;97645.56;4996908;28;20207;-58
2022/12/19 02:34:11;;;;;;;44.70;26.63;;;;;;;0.83;100.00;97635.47;4994102;28;20211;-59
2022/12/19 02:36:40;;;;;;;45.50;28.33;;;;;;;0.78;100.00;97633.03;4994575;28;20641;-59
2022/12/19 02:39:09;;;;;;;43.50;27.83;;;;;;;0.84;100.00;97627.59;4994094;28;20208;-59
2022/12/19 02:41:42;;;;;;;43.50;27.87;;;;;;;0.88;100.00;97629.19;4994872;28;20227;-60
2022/12/19 02:44:11;;;;;;;43.23;27.43;;;;;;;0.87;100.00;97631.81;4993958;28;20267;-59
2022/12/19 02:46:39;;;;;;;43.47;27.50;;;;;;;0.90;100.00;97635.16;4994361;28;20209;-59
2022/12/19 02:49:05;;;;;;;42.53;26.67;;;;;;;0.90;100.00;97637.75;4994051;28;20211;-60
2022/12/19 02:51:32;;;;;;;39.47;26.40;;;;;;;0.92;100.00;97635.94;4994282;28;20239;-59
2022/12/19 02:53:58;;;;;;;42.97;26.87;;;;;;;0.97;100.00;97634.00;4993480;28;20208;-59
2022/12/19 02:56:37;;;;;;;38.67;26.50;;;;;;;0.99;100.00;97645.19;4993883;28;20208;-59
2022/12/19 02:59:25;;;;;;;39.77;25.17;;;;;;;1.00;100.00;97648.66;4994079;28;20212;-60
2022/12/19 03:01:57;;;;;;;41.00;25.73;;;;;;;1.00;100.00;97646.91;4992602;28;20218;-59
2022/12/19 03:04:32;;;;;;;40.90;25.27;;;;;;;1.04;100.00;97645.03;4993325;28;20665;-60
2022/12/19 03:07:02;;;;;;;39.87;25.33;;;;;;;1.06;100.00;97650.19;4993859;28;20201;-59
2022/12/19 03:09:35;;;;;;;38.30;25.07;;;;;;;1.13;100.00;97654.25;4993098;28;20227;-59
2022/12/19 03:12:05;;;;;;;37.33;24.70;;;;;;;1.15;100.00;97648.06;4993790;28;20201;-59
2022/12/19 03:14:33;;;;;;;38.37;24.37;;;;;;;1.18;100.00;97654.91;4993476;28;20205;-58
2022/12/19 03:17:04;;;;;;;36.93;24.13;;;;;;;1.16;100.00;97648.91;4993758;28;20220;-59
2022/12/19 03:19:31;;;;;;;31.33;21.43;;;;;;;1.19;100.00;97646.19;4993025;28;20650;-59
2022/12/19 03:21:58;;;;;;;30.43;21.60;;;;;;;1.22;100.00;97636.47;4993348;28;20556;-59
2022/12/19 03:24:25;;;;;;;30.00;20.87;;;;;;;1.25;100.00;97648.53;4992446;28;20232;-60
2022/12/19 03:26:56;;;;;;;29.30;20.73;;;;;;;1.24;100.00;97641.66;4993468;28;20231;-59
2022/12/19 03:29:27;;;;;;;28.60;19.90;;;;;;;1.25;100.00;97638.09;4992711;28;20219;-60
2022/12/19 03:31:54;;;;;;;30.00;21.40;;;;;;;1.29;100.00;97631.88;4995826;28;20203;-60
2022/12/19 03:34:25;;;;;;;32.30;22.03;;;;;;;1.31;100.00;97624.84;4996398;28;20208;-60
2022/12/19 03:36:56;;;;;;;32.00;21.70;;;;;;;1.31;100.00;97633.50;4994142;28;20230;-59
2022/12/19 03:39:23;;;;;;;33.83;22.47;;;;;;;1.28;100.00;97630.16;4995121;28;20647;-60
2022/12/19 03:44:37;;;;;;;33.43;23.73;;;;;;;1.32;100.00;97639.56;4995638;28;20560;-59
2022/12/19 03:47:06;;;;;;;35.97;23.80;;;;;;;1.33;100.00;97636.06;4995972;28;20210;-60
2022/12/19 03:49:35;;;;;;;35.60;24.23;;;;;;;1.34;100.00;97630.78;4996581;28;20634;-60
2022/12/19 03:52:09;;;;;;;36.23;23.73;;;;;;;1.35;100.00;97621.19;4994951;28;20216;-59
2022/12/19 03:54:39;;;;;;;37.63;25.17;;;;;;;1.38;100.00;97627.13;4988769;28;20206;-59
2022/12/19 03:57:09;;;;;;;36.17;24.67;;;;;;;1.38;100.00;97626.28;4992225;28;20512;-59
2022/12/19 03:59:39;;;;;;;38.67;24.93;;;;;;;1.39;100.00;97622.75;4992345;28;20220;-59
2022/12/19 04:02:07;;;;;;;37.83;25.00;;;;;;;1.36;100.00;97618.53;4992502;28;20456;-59
2022/12/19 04:04:37;;;;;;;36.53;25.10;;;;;;;1.38;100.00;97621.09;4992405;28;20243;-59
2022/12/19 04:07:05;;;;;;;36.73;24.37;;;;;;;1.46;100.00;97621.59;4992721;28;20208;-59
2022/12/19 04:09:32;;;;;;;41.57;27.20;;;;;;;1.43;100.00;97613.91;4992099;28;20215;-59
2022/12/19 04:12:00;;;;;;;43.53;27.37;;;;;;;1.42;100.00;97614.81;4992719;28;20204;-59
2022/12/19 04:14:28;;;;;;;43.27;27.67;;;;;;;1.41;100.00;97614.00;4991699;28;20216;-60
2022/12/19 04:16:57;;;;;;;42.23;27.27;;;;;;;1.38;100.00;97608.88;4992551;28;20223;-59
2022/12/19 04:19:29;;;;;;;42.23;27.03;;;;;;;1.40;100.00;97611.44;4991725;28;20207;-60
2022/12/19 04:22:02;;;;;;;43.50;27.13;;;;;;;1.36;100.00;97607.25;4992651;28;20216;-59
2022/12/19 04:24:33;;;;;;;39.23;26.30;;;;;;;1.40;100.00;97614.03;4991887;28;20537;-59
2022/12/19 04:27:01;;;;;;;43.80;27.87;;;;;;;1.33;100.00;97608.22;4992113;28;20205;-59
2022/12/19 04:29:29;;;;;;;39.10;25.47;;;;;;;1.43;100.00;97611.31;4991736;28;20240;-59
2022/12/19 04:31:56;;;;;;;41.87;27.87;;;;;;;1.44;100.00;97613.00;4991781;28;20219;-60
2022/12/19 04:34:22;;;;;;;41.13;25.97;;;;;;;1.52;100.00;97607.47;4992187;28;20216;-60
2022/12/19 04:36:50;;;;;;;42.70;27.50;;;;;;;1.43;100.00;97616.50;4992139;28;20201;-59
2022/12/19 04:39:18;;;;;;;40.23;26.50;;;;;;;1.38;100.00;97608.88;4992816;28;20679;-60
2022/12/19 04:41:44;;;;;;;43.70;27.47;;;;;;;1.41;100.00;97613.13;4995362;28;20223;-59
2022/12/19 04:44:11;;;;;;;43.37;27.73;;;;;;;1.41;100.00;97610.53;4995137;28;20240;-59
2022/12/19 04:46:37;;;;;;;41.07;27.20;;;;;;;1.42;100.00;97602.63;4993566;28;20688;-60
2022/12/19 04:49:04;;;;;;;40.60;26.80;;;;;;;1.45;100.00;97605.09;5015364;28;20192;-60
2022/12/19 04:51:30;;;;;;;43.57;27.77;;;;;;;1.45;100.00;97599.88;5014958;28;20198;-60
2022/12/19 04:53:57;;;;;;;44.07;27.77;;;;;;;1.43;100.00;97608.69;5011458;28;20223;-59
2022/12/19 04:56:25;;;;;;;43.67;27.73;;;;;;;1.47;100.00;97607.66;4993845;28;20224;-59
2022/12/19 04:58:56;;;;;;;44.17;26.37;;;;;;;1.49;100.00;97617.09;4992835;28;20216;-59
2022/12/19 05:01:22;;;;;;;43.00;26.90;;;;;;;1.48;100.00;97617.19;4992176;28;20199;-59
2022/12/19 05:03:49;;;;;;;42.90;26.87;;;;;;;1.49;100.00;97617.09;4991710;28;20219;-59
2022/12/19 05:06:15;;;;;;;41.70;26.90;;;;;;;1.51;100.00;97614.44;4992010;28;20223;-60
2022/12/19 05:08:43;;;;;;;43.80;27.13;;;;;;;1.48;100.00;97619.78;4992134;28;20200;-59
2022/12/19 05:11:11;;;;;;;43.17;26.77;;;;;;;1.47;100.00;97618.94;4991415;28;20235;-58
2022/12/19 05:13:39;;;;;;;43.67;27.80;;;;;;;1.51;100.00;97619.66;4991983;28;20296;-60
2022/12/19 05:16:09;;;;;;;42.33;26.30;;;;;;;1.49;100.00;97611.03;4991682;28;20223;-59
2022/12/19 05:18:35;;;;;;;38.90;26.47;;;;;;;1.48;100.00;97609.38;4992122;28;20203;-60
2022/12/19 05:21:02;;;;;;;39.50;25.33;;;;;;;1.47;100.00;97597.22;4991822;28;20200;-60
2022/12/19 05:23:29;;;;;;;41.03;26.33;;;;;;;1.44;100.00;97600.81;4991601;28;20291;-60
2022/12/19 05:25:57;;;;;;;40.97;26.77;;;;;;;1.47;100.00;97602.44;4990632;28;20224;-59
2022/12/19 05:28:24;;;;;;;43.77;26.63;;;;;;;1.49;100.00;97590.19;4992078;28;20205;-59
2022/12/19 05:30:52;;;;;;;39.80;26.30;;;;;;;1.52;100.00;97592.69;4991476;28;20227;-59
2022/12/19 05:33:18;;;;;;;42.77;25.97;;;;;;;1.49;100.00;97596.25;4991465;28;20212;-59
2022/12/19 05:35:48;;;;;;;41.80;25.60;;;;;;;1.49;100.00;97601.47;4991372;28;20217;-60
2022/12/19 05:38:14;;;;;;;36.30;24.70;;;;;;;1.54;100.00;97598.66;4991430;28;20205;-60
2022/12/19 05:40:43;;;;;;;42.10;25.70;;;;;;;1.55;100.00;97594.31;4991089;28;20208;-60
2022/12/19 05:43:10;;;;;;;39.07;25.67;;;;;;;1.51;100.00;97593.59;4993690;28;20235;-60
2022/12/19 05:45:36;;;;;;;38.57;25.53;;;;;;;1.51;100.00;97593.59;5001170;28;20331;-60
2022/12/19 05:48:05;;;;;;;39.60;25.67;;;;;;;1.48;100.00;97591.97;5001401;28;20212;-60
2022/12/19 05:50:31;;;;;;;38.43;25.30;;;;;;;1.53;100.00;97594.34;5001092;28;20227;-59
2022/12/19 05:52:58;;;;;;;40.77;26.23;;;;;;;1.55;100.00;97605.59;5002091;28;20208;-60
2022/12/19 05:55:24;;;;;;;41.00;27.20;;;;;;;1.59;100.00;97601.09;5004809;28;20211;-60
2022/12/19 05:57:51;;;;;;;42.27;26.63;;;;;;;1.60;100.00;97603.63;5004536;28;20215;-60
2022/12/19 06:00:17;;;;;;;40.30;25.47;;;;;;;1.60;100.00;97601.00;5005279;28;20216;-59
2022/12/19 06:02:44;;;;;;;48.70;27.17;;;;;;;1.57;100.00;97598.53;5004346;28;20220;-60
2022/12/19 06:05:13;;;;;;;39.63;25.07;;;;;;;1.62;100.00;97591.38;5004415;28;20238;-57
2022/12/19 06:07:40;;;;;;;39.87;26.20;;;;;;;1.69;100.00;97597.19;5004532;28;20205;-62
2022/12/19 06:10:07;;;;;;;39.60;25.07;;;;;;;1.70;100.00;97594.47;5003729;28;20203;-61
2022/12/19 06:12:33;;;;;;;43.40;26.27;;;;;;;1.75;100.00;97607.34;5004142;28;20222;-58
2022/12/19 06:15:00;;;;;;;41.83;27.00;;;;;;;1.78;100.00;97597.63;5004238;28;20215;-58
2022/12/19 06:17:26;;;;;;;41.40;26.23;;;;;;;1.80;100.00;97603.63;5004768;28;20224;-58
2022/12/19 06:19:53;;;;;;;41.97;27.00;;;;;;;1.77;100.00;97595.91;5010990;28;20220;-58
2022/12/19 06:22:21;;;;;;;41.97;25.53;;;;;;;1.74;100.00;97590.84;5015673;28;20215;-57
2022/12/19 06:24:48;;;;;;;42.83;27.17;;;;;;;1.75;100.00;97597.75;5010566;28;20656;-58
2022/12/19 06:27:15;;;;;;;37.00;25.80;;;;;;;1.72;100.00;97603.09;5002535;28;20221;-57
2022/12/19 06:29:41;;;;;;;42.87;26.13;;;;;;;1.72;100.00;97600.50;5001948;28;20214;-58
2022/12/19 06:32:08;;;;;;;42.87;27.27;;;;;;;1.71;100.00;97611.84;5001589;28;20212;-59
2022/12/19 06:34:34;;;;;;;39.63;24.53;;;;;;;1.79;100.00;97609.75;5003690;28;20537;-58
2022/12/19 06:37:01;;;;;;;41.70;26.50;;;;;;;1.75;100.00;97608.19;5003882;28;20209;-58
2022/12/19 06:39:31;;;;;;;40.67;26.67;;;;;;;1.82;100.00;97606.16;5003671;28;20817;-61
2022/12/19 06:44:42;;;;;;;39.47;25.80;;;;;;;1.71;100.00;97598.78;5017280;28;20227;-58
2022/12/19 06:47:08;;;;;;;40.10;25.43;;;;;;;1.70;100.00;97585.84;5016678;28;20318;-59
2022/12/19 06:49:35;;;;;;;40.13;24.77;;;;;;;1.73;100.00;97583.09;5005710;28;20205;-58
2022/12/19 06:52:01;;;;;;;39.60;25.80;;;;;;;1.68;100.00;97590.25;4995962;28;20541;-58
2022/12/19 06:54:30;;;;;;;37.40;24.30;;;;;;;1.70;100.00;97583.22;4999045;28;20266;-59
2022/12/19 06:56:56;;;;;;;40.87;26.07;;;;;;;1.67;100.00;97581.59;5005017;28;20208;-59
2022/12/19 06:59:23;;;;;;;40.17;26.17;;;;;;;1.69;100.00;97577.16;5003909;28;20672;-59
2022/12/19 07:01:54;;;;;;;35.43;24.03;;;;;;;1.74;100.00;97575.19;5002345;28;20204;-58
2022/12/19 07:04:25;;;;;;;36.10;23.43;;;;;;;1.68;100.00;97579.81;5004208;28;20214;-58
2022/12/19 07:06:52;;;;;;;38.60;25.73;;;;;;;1.70;100.00;97584.06;5013350;28;20209;-59
2022/12/19 07:09:18;;;;;;;39.77;25.37;;;;;;;1.71;100.00;97574.47;5002916;28;20532;-59
2022/12/19 07:11:46;;;;;;;40.67;25.27;;;;;;;1.76;100.00;97573.38;4994723;28;20212;-58
2022/12/19 07:14:12;;;;;;;39.53;25.50;;;;;;;1.81;100.00;97571.41;5000249;28;20213;-58
2022/12/19 07:16:39;;;;;;;38.93;25.23;;;;;;;1.84;100.00;97576.47;4998427;28;20202;-59
2022/12/19 07:19:06;;;;;;;39.33;24.87;;;;;;;1.83;100.00;97582.63;5010522;28;20212;-59
2022/12/19 07:21:33;;;;;;;38.70;25.43;;;;;;;1.77;100.00;97584.66;5010465;28;20192;-58
2022/12/19 07:24:00;;;;;;;37.53;23.83;;;;;;;1.79;100.00;97583.69;5010511;28;20277;-58
2022/12/19 07:26:27;;;;;;;37.30;24.77;;;;;;;1.82;100.00;97595.72;5010586;28;20242;-60
2022/12/19 07:28:54;;;;;;;35.10;24.90;;;;;;;1.81;100.00;97591.41;5001803;28;20215;-58
2022/12/19 07:31:21;;;;;;;34.83;23.80;;;;;;;1.85;100.00;97591.22;4994575;28;20235;-58
2022/12/19 07:33:47;;;;;;;39.03;25.33;;;;;;;1.83;100.00;97585.25;4994712;28;20209;-58
2022/12/19 07:36:14;;;;;;;36.07;24.60;;;;;;;1.85;100.00;97593.84;4994124;28;20243;-58
2022/12/19 07:38:40;;;;;;;36.53;24.83;;;;;;;1.87;100.00;97592.03;4993303;28;20736;-59
2022/12/19 07:41:07;;;;;;;36.87;24.00;;;;;;;1.93;100.00;97596.97;4994062;28;20208;-59
2022/12/19 07:43:33;;;;;;;37.00;24.40;;;;;;;1.90;100.00;97591.88;4993201;28;20285;-59
2022/12/19 07:46:01;;;;;;;37.80;24.97;;;;;;;1.91;100.00;97592.72;4992723;28;20664;-59
2022/12/19 07:48:28;;;;;;;38.43;25.87;;;;;;;1.92;100.00;97591.78;4993281;28;20208;-58
2022/12/19 07:50:55;;;;;;;35.37;24.50;;;;;;;1.96;100.00;97603.78;4993016;28;20220;-58
2022/12/19 07:53:21;;;;;;;33.70;23.67;;;;;;;1.97;100.00;97593.31;4994508;28;20652;-58
2022/12/19 07:55:50;;;;;;;38.23;24.20;;;;;;;1.97;100.00;97602.88;4992567;28;20797;-58
2022/12/19 07:58:17;;;;;;;39.47;25.90;;;;;;;1.97;100.00;97611.56;4993190;28;20223;-58
2022/12/19 08:00:43;;;;;;;40.43;26.37;;;;;;;1.93;100.00;97610.00;4993643;28;20209;-59
2022/12/19 08:03:12;;;;;;;38.87;25.50;;;;;;;2.00;100.00;97619.25;4993164;28;20232;-58
2022/12/19 08:05:39;;;;;;;37.60;26.17;;;;;;;1.97;100.00;97619.38;4993248;28;20205;-58
2022/12/19 08:08:05;;;;;;;39.27;25.80;;;;;;;1.98;100.00;97612.41;4992307;28;20676;-58
2022/12/19 08:10:32;;;;;;;36.67;23.50;;;;;;;1.94;100.00;97611.72;4992737;28;20212;-59
2022/12/19 08:12:58;;;;;;;40.10;26.43;;;;;;;1.94;100.00;97623.91;4992099;28;20213;-58
2022/12/19 08:15:26;;;;;;;39.97;25.77;;;;;;;1.90;100.00;97617.97;4992118;28;20271;-58
2022/12/19 08:17:54;;;;;;;39.83;26.53;;;;;;;1.92;100.00;97618.72;4992542;28;21357;-59
2022/12/19 08:20:22;;;;;;;38.00;25.90;;;;;;;1.96;100.00;97625.50;4992368;28;20227;-59
2022/12/19 08:22:49;;;;;;;40.60;25.87;;;;;;;1.98;100.00;97634.09;4992089;28;20621;-58
2022/12/19 08:25:15;;;;;;;38.20;25.77;;;;;;;2.00;100.00;97629.69;4991749;28;20210;-59
2022/12/19 08:27:42;;;;;;;38.70;25.73;;;;;;;1.96;100.00;97638.56;4991730;28;20236;-59
2022/12/19 08:30:12;;;;;;;40.93;26.47;;;;;;;2.03;100.00;97625.25;4992621;28;20212;-59
2022/12/19 08:32:38;;;;;;;43.47;26.90;;;;;;;2.07;100.00;97630.25;4992674;28;20540;-59
2022/12/19 08:35:06;;;;;;;39.83;25.30;;;;;;;2.09;100.00;97625.00;4992162;28;20208;-58
2022/12/19 08:37:34;;;;;;;38.33;24.17;;;;;;;2.06;100.00;97617.28;4992067;28;20224;-58
2022/12/19 08:40:01;;;;;;;38.53;25.57;;;;;;;2.07;100.00;97605.94;4991383;28;20211;-59
2022/12/19 08:42:28;;;;;;;37.27;25.10;;;;;;;2.10;100.00;97608.41;4992377;28;20216;-58
2022/12/19 08:44:54;;;;;;;39.37;26.67;;;;;;;2.08;100.00;97599.81;4965114;28;1092783;-58
2022/12/19 08:47:22;;;;;;;37.67;25.73;;;;;;;2.13;100.00;97600.44;5001688;28;20223;-59
2022/12/19 08:49:49;;;;;;;42.07;26.03;;;;;;;2.22;100.00;97605.25;5003218;28;20213;-58
2022/12/19 08:52:17;;;;;;;40.33;26.53;;;;;;;2.17;100.00;97608.06;5002558;28;20211;-60
2022/12/19 08:54:45;;;;;;;42.23;26.13;;;;;;;2.22;100.00;97598.28;5001614;28;20530;-60
2022/12/19 08:57:11;;;;;;;46.47;28.43;;;;;;;2.25;100.00;97605.97;5003016;28;20204;-58
2022/12/19 08:59:38;;;;;;;43.03;27.27;;;;;;;2.33;100.00;97593.44;5001693;28;20691;-58
2022/12/19 09:02:04;;;;;;;42.90;26.67;;;;;;;2.38;100.00;97586.22;5002295;28;20216;-58
2022/12/19 09:04:31;;;;;;;40.67;27.07;;;;;;;2.48;100.00;97584.03;5002434;28;20220;-59
2022/12/19 09:06:57;;;;;;;44.70;28.23;;;;;;;2.64;100.00;97592.84;5001489;28;20239;-59
2022/12/19 09:09:24;;;;;;;40.90;27.17;;;;;;;2.67;100.00;97590.09;5001666;28;20217;-59
2022/12/19 09:11:51;;;;;;;40.53;26.97;;;;;;;2.67;100.00;97594.47;5001700;28;20205;-59
2022/12/19 09:14:18;;;;;;;37.73;26.00;;;;;;;2.85;100.00;97602.28;5001990;28;20201;-59
2022/12/19 09:16:44;;;;;;;40.37;26.77;;;;;;;2.65;100.00;97611.97;5002457;28;20204;-58
2022/12/19 09:19:14;;;;;;;41.00;27.57;;;;;;;2.55;100.00;97616.75;5001012;28;20640;-58
2022/12/19 09:21:40;;;;;;;42.20;26.60;;;;;;;2.46;100.00;97614.59;5002000;28;20292;-58
2022/12/19 09:24:08;;;;;;;41.07;26.60;;;;;;;2.41;100.00;97614.78;5001457;28;20212;-59
2022/12/19 09:26:37;;;;;;;40.30;27.03;;;;;;;2.38;100.00;97614.94;5001581;28;20738;-57
2022/12/19 09:29:05;;;;;;;39.07;25.93;;;;;;;2.37;100.00;97617.63;5005773;28;21333;-58
2022/12/19 09:31:31;;;;;;;45.03;27.93;;;;;;;2.38;100.00;97629.75;5005788;28;20911;-58
2022/12/19 09:33:58;;;;;;;38.87;26.87;;;;;;;2.42;100.00;97619.09;5006238;28;20219;-58
2022/12/19 09:36:25;;;;;;;39.87;27.13;;;;;;;2.28;100.00;97610.19;5006781;28;20201;-58
2022/12/19 09:38:53;;;;;;;41.60;27.13;;;;;;;2.27;100.00;97611.09;5003899;28;20197;-59
2022/12/19 09:41:36;;;;;;;41.60;25.77;;;;;;;2.24;100.00;97609.47;5012615;28;20213;-58
2022/12/19 09:44:11;;;;;;;46.37;27.63;;;;;;;2.25;100.00;97608.56;5007843;28;20240;-59
2022/12/19 09:46:44;;;;;;;44.17;28.23;;;;;;;2.31;100.00;97612.66;5001969;28;20229;-59
2022/12/19 09:49:12;;;;;;;42.43;28.30;;;;;;;2.44;100.00;97609.41;4996097;28;20220;-60
2022/12/19 09:51:45;;;;;;;40.70;28.87;;;;;;;2.41;100.00;97609.56;4998243;28;20284;-59
2022/12/19 09:54:15;;;;;;;44.17;28.43;;;;;;;2.47;100.00;97609.31;4996071;28;20267;-58
2022/12/19 09:56:44;;;;;;;42.03;28.33;;;;;;;2.68;100.00;97606.63;4996839;28;20238;-59
2022/12/19 09:59:24;;;;;;;42.07;27.90;;;;;;;3.08;100.00;97602.97;4996894;28;20205;-59
2022/12/19 10:01:55;;;;;;;40.00;28.03;;;;;;;3.37;100.00;97610.22;4997046;28;20208;-59
2022/12/19 10:04:25;;;;;;;43.83;29.47;;;;;;;3.50;100.00;97606.09;4996294;28;20205;-59
2022/12/19 10:06:51;;;;;;;39.87;27.70;;;;;;;4.04;100.00;97599.81;4995874;28;20641;-59
2022/12/19 10:09:21;;;;;;;42.67;28.53;;;;;;;4.10;100.00;97607.34;4996059;28;20232;-58
2022/12/19 10:11:55;;;;;;;43.23;29.07;;;;;;;4.16;100.00;97614.03;4996494;28;20256;-58
2022/12/19 10:14:37;;;;;;;40.43;26.73;;;;;;;4.36;100.00;97611.19;4995536;28;20189;-59
2022/12/19 10:17:09;;;;;;;39.30;27.37;;;;;;;4.45;100.00;97608.97;4996120;28;20233;-58
2022/12/19 10:19:44;;;;;;;39.03;27.40;;;;;;;4.50;99.90;97609.53;4995337;28;20577;-58
2022/12/19 10:22:18;;;;;;;38.27;28.13;;;;;;;4.62;97.30;97608.03;4995108;28;20218;-58
2022/12/19 10:25:13;;;;;;;39.93;28.33;;;;;;;4.50;98.72;97599.06;4994384;28;20529;-59
2022/12/19 10:27:44;;;;;;;39.07;28.33;;;;;;;4.64;95.12;97590.44;4994665;28;20232;-58
2022/12/19 10:30:15;;;;;;;38.70;27.77;;;;;;;4.75;95.38;97585.47;4994659;28;20220;-58
2022/12/19 10:32:48;;;;;;;38.47;28.63;;;;;;;4.84;96.15;97574.50;4994547;28;20201;-58
2022/12/19 10:35:16;;;;;;;38.17;27.33;;;;;;;4.98;95.86;97578.97;4994044;28;20240;-59
2022/12/19 10:37:47;;;;;;;36.27;26.93;;;;;;;5.16;95.46;97574.47;4994216;28;20228;-59
2022/12/19 10:40:17;;;;;;;40.30;26.50;;;;;;;4.94;94.67;97564.34;4993561;28;20197;-58
2022/12/19 10:42:49;;;;;;;36.50;25.83;;;;;;;5.16;96.81;97569.22;4995258;28;20204;-59
2022/12/19 10:45:20;;;;;;;37.40;26.57;;;;;;;4.98;96.22;97563.25;5003934;28;20197;-58
2022/12/19 10:47:47;;;;;;;38.40;29.20;;;;;;;4.85;97.53;97568.31;5003746;28;20691;-59
2022/12/19 10:50:22;;;;;;;38.63;27.83;;;;;;;4.64;96.57;97566.88;5003773;28;20204;-58
2022/12/19 10:52:52;;;;;;;36.40;26.60;;;;;;;4.61;97.78;97568.81;5005082;28;20200;-59
2022/12/19 10:55:34;;;;;;;37.93;26.70;;;;;;;4.58;99.34;97564.59;5005288;28;20209;-59
2022/12/19 10:58:19;;;;;;;40.07;28.40;;;;;;;4.62;96.88;97566.13;5005015;28;20216;-58
2022/12/19 11:00:58;;;;;;;40.97;28.33;;;;;;;4.46;98.95;97565.28;5004819;28;20228;-59
2022/12/19 11:03:24;;;;;;;37.00;27.07;;;;;;;4.35;100.00;97563.25;5005159;28;20599;-59
2022/12/19 11:05:52;;;;;;;38.00;26.47;;;;;;;4.34;100.00;97552.84;5004265;28;20633;-59
2022/12/19 11:08:23;;;;;;;37.67;27.57;;;;;;;4.34;100.00;97552.84;5005385;28;20412;-58
2022/12/19 11:10:50;;;;;;;38.63;27.10;;;;;;;4.28;100.00;97550.56;5003724;28;20204;-59
2022/12/19 11:13:20;;;;;;;42.53;28.37;;;;;;;4.31;100.00;97550.38;5004819;28;20213;-59
2022/12/19 11:15:50;;;;;;;36.57;26.20;;;;;;;4.40;100.00;97555.97;5003293;28;20261;-59
2022/12/19 11:18:16;;;;;;;37.07;26.87;;;;;;;4.35;99.90;97555.38;5003496;28;20616;-59
2022/12/19 11:20:54;;;;;;;41.77;27.07;;;;;;;4.26;100.00;97552.41;5003909;28;20252;-59
2022/12/19 11:23:20;;;;;;;38.97;26.47;;;;;;;4.18;100.00;97538.91;5004031;28;20227;-59
2022/12/19 11:25:54;;;;;;;39.47;27.37;;;;;;;4.21;100.00;97534.34;5002893;28;20216;-58
2022/12/19 11:28:23;;;;;;;39.37;27.27;;;;;;;4.28;100.00;97530.47;5003330;28;20219;-58
2022/12/19 11:30:58;;;;;;;37.90;26.47;;;;;;;4.27;100.00;97526.16;5003131;28;20221;-58